Cape Lambert — V7TC9 — position and weather

sailwx.info

Track history (hours):
 
Tides and Currents Weather Stations Pressure Air Temp Water Temp Dewpoint Dewpoint Depression Visibility Wind Speed Wind Dir Waves Ship Positions

Cape Lambert

Last reported at 2015-Mar-30 04:27 UTC. Time now 2015-Mar-31 02:07 UTC.
Position N 25°03' E 120°15'.

Length 290 m; draft 17.8 m.

Type: Cargo ship. MMSI: 538003781.

Date/timePositionNaut miles runAvg speedWind from/ knotsBaromVisibWave heightAir tempDewpointWater temp
2015-Mar-30 04:27N 25°03' E 120°15'9 9.3
2015-Mar-30 03:31N 24°55' E 120°14'11110.0
2015-Mar-29 16:27N 23°05' E 119°53'8 9.2
2015-Mar-29 15:33N 22°57' E 119°53'9 9.4
2015-Mar-29 14:33N 22°48' E 119°53'10 9.5
2015-Mar-29 13:33N 22°38' E 119°54'10 9.6
2015-Mar-29 12:33N 22°29' E 119°57'9 8.7
2015-Mar-29 11:33N 22°21' E 120°00'10 8.9
2015-Mar-29 10:24N 22°11' E 120°00'  
Track history (hours):
 
Tides and Currents Weather Stations Pressure Air Temp Water Temp Dewpoint Dewpoint Depression Visibility Wind Speed Wind Dir Waves Ship Positions

Cape Lambert

Last reported at 2015-Mar-30 04:27 UTC. Time now 2015-Mar-31 02:07 UTC.
Position N 25°03' E 120°15'.

Length 290 m; draft 17.8 m.

Type: Cargo ship. MMSI: 538003781.

Date/timePositionNaut miles runAvg speedWind from/ knotsBaromVisibWave heightAir tempDewpointWater temp
2015-Mar-30 04:27N 25°03' E 120°15'9 9.3
2015-Mar-30 03:31N 24°55' E 120°14'11110.0
2015-Mar-29 16:27N 23°05' E 119°53'8 9.2
2015-Mar-29 15:33N 22°57' E 119°53'9 9.4
2015-Mar-29 14:33N 22°48' E 119°53'10 9.5
2015-Mar-29 13:33N 22°38' E 119°54'10 9.6
2015-Mar-29 12:33N 22°29' E 119°57'9 8.7
2015-Mar-29 11:33N 22°21' E 120°00'10 8.9
2015-Mar-29 10:24N 22°11' E 120°00'  

Dump ship's entire track history